Skip to Main Content
SEARCH:
Location Air RH Dwp Precip Type Wind Speed Wind Gust Direction Pavement Temperature Date/Time
Hatem Bridge US 40 E/B 18 53 4 None 9 mph 12 mph NW 11 - 11 1/18/2018 8:11:00 AM
I-270 at I-370 17 58 5 None Calm 5 mph NW 15 - 18 1/18/2018 8:10:00 AM
I-270 at MD-109 20 53 6 None 9 mph 14 mph W 14 - 23 1/18/2018 8:10:00 AM
I-495 at American Legion Bridge 18 62 7 None Calm 8 mph NW 21 - 23 1/18/2018 8:10:00 AM
I-68 at Savage Mt 10 81 6 None 9 mph 27 mph W 8 - 9 1/18/2018 8:10:00 AM
I-68 at Sideling Hill 17 62 6 None 6 mph 9 mph S 16 - 16 1/18/2018 8:10:00 AM
I-68 at US 219 7 92 5 None 20 mph 32 mph W 10 - 3 1/18/2018 8:10:00 AM
I-68 at WV Line 8 81 4 None 9 mph 26 mph W 11 - 7 1/18/2018 8:10:00 AM
I-695 at I-83 15 67 6 None Calm 6 mph NE 15 - 19 1/18/2018 8:10:00 AM
I-695 on FSK Bridge 19 58 7 None 12 mph 16 mph NE - 1/18/2018 8:13:00 AM
I-70 at Fred-Wash Co. 15 70 7 None 7 mph 17 mph NW 11 - 17 1/18/2018 8:10:00 AM
I-70 at I-695 16 62 6 None 5 mph 10 mph W 14 - 23 1/18/2018 8:10:00 AM
I-70 at I-81 20 57 7 None 5 mph 9 mph SW - 1/18/2018 8:10:00 AM
I-70 at MD-27 18 62 7 None 4 mph 12 mph W 18 - 20 1/18/2018 8:10:00 AM
I-70 at MD-32 17 61 6 None Calm 4 mph W 16 - 18 1/18/2018 8:10:00 AM
I-83 at MD-137 14 72 6 None Calm Calm SW 20 - 20 1/18/2018 8:10:00 AM
I-95 at I-695 NE 18 58 6 None Calm Calm W 14 - 19 1/18/2018 8:11:00 AM
I-95 at Patuxent River 21 51 6 None Calm 10 mph NW 21 - 23 1/18/2018 8:10:00 AM
I-95 at Tydings Bridge 18 66 8 None Calm 8 mph N - 1/18/2018 8:10:00 AM
I-95/495 at I-295 23 52 8 None 4 mph 9 mph N 18 - 27 1/18/2018 8:10:00 AM
I-97 at MD-100 19 57 7 None Calm 6 mph N 16 - 20 1/18/2018 8:10:00 AM
I-97 at MD-32 19 56 6 None 8 mph 11 mph N 17 - 21 1/18/2018 8:10:00 AM
MD 20 at MD 21 19 59 8 None 5 mph 11 mph W 19 - 19 1/18/2018 8:10:00 AM
MD 231 at Patuxent River 20 56 7 None 7 mph 11 mph NW 18 - 22 1/18/2018 8:10:00 AM
MD 260 at Cox Rd 19 58 7 None Calm 5 mph NW 22 - 22 1/18/2018 8:10:00 AM
MD-135 at Salt Dome 5 95 4 None 7 mph 25 mph W 6 - 6 1/18/2018 8:10:00 AM
MD-140 at MD-97 13 66 4 None Calm 4 mph W 15 - 15 1/18/2018 8:10:00 AM
MD-200 EB at Bonifant Rd 18 58 6 None Calm 5 mph NE 15 - 17 1/18/2018 8:11:00 AM
MD-200 WB at Muncaster Mill Rd 18 55 5 None 4 mph 13 mph NW 15 - 18 1/18/2018 8:11:00 AM
MD-213 at Sassafras River 20 66 11 None 7 mph 10 mph W 19 - 19 1/18/2018 8:10:00 AM
MD-24 at Rock St Park 12 85 8 None Calm Calm N 16 - 16 1/18/2018 8:10:00 AM
MD-30 at PA Line 16 61 5 None 7 mph 13 mph W 17 - 17 1/18/2018 8:10:00 AM
MD-33 at Knapps Narrows Drawbridge 21 58 9 None 18 mph 25 mph NW 21 - 21 1/18/2018 8:10:00 AM
MD-344 at MD-224 19 60 7 None Calm 5 mph NW 20 - 20 1/18/2018 8:10:00 AM
MD-4 at Patuxent River 21 61 10 None - - No Data Available 18 - 23 1/18/2018 8:10:00 AM
MD-404 at Choptank River 19 65 9 None Calm 4 mph NW 17 - 21 1/18/2018 8:10:00 AM
MD-43 at MD-150 17 66 8 None Calm 5 mph W 15 - 20 1/18/2018 8:10:00 AM
MD-51 at Oldtown Salt Dome 17 60 6 None 5 mph 12 mph W 16 - 16 1/18/2018 8:10:00 AM
MD-64 at MD-418 14 66 5 None 6 mph 9 mph SW 14 - 15 1/18/2018 8:10:00 AM
US 301 at MD 305 19 62 9 None 10 mph 14 mph NW 19 - 20 1/18/2018 8:10:00 AM
US-1 at Baltimore / Harford Co. Line 11 77 5 None Calm 9 mph NW 14 - 17 1/18/2018 8:10:00 AM
US-1 at Conowingo Dam 17 71 9 None Calm Calm N 20 - 20 1/18/2018 8:10:00 AM
US-13 at US-113 20 62 9 None 7 mph 12 mph NW 23 - 24 1/18/2018 8:10:00 AM
US-13 at US-50 21 61 10 None 7 mph 14 mph NW - 1/18/2018 8:10:00 AM
US-15 at MD-140 19 53 5 None Calm 5 mph SE 14 - 19 1/18/2018 8:10:00 AM
US-301 at MD-5 19 59 7 None Calm 10 mph SW 18 - 23 1/18/2018 8:10:00 AM
US-301 at Potomac 24 65 14 None 12 mph 17 mph NW 18 - 23 1/18/2018 8:10:00 AM
US-301 on HWN Bridge - - - None - - No Data Available 14 - 14 1/18/2018 8:12:00 AM
US-340 at MD-180 20 51 5 None 6 mph 12 mph W 19 - 19 1/18/2018 8:10:00 AM
US-50 at Choptank 21 62 11 None 11 mph 21 mph NW 19 - 22 1/18/2018 8:10:00 AM
US-50 at I-95 19 55 6 None 4 mph 6 mph NW 18 - 22 1/18/2018 8:10:00 AM
US-50 at MD-2 19 59 7 None 4 mph 10 mph W 20 - 21 1/18/2018 8:10:00 AM
US-50 at MD-331 20 60 9 None 4 mph 8 mph NW 20 - 29 1/18/2018 8:10:00 AM
US-50 at OC Drawbridge 20 60 8 None 14 mph 24 mph NW 23 - 23 1/18/2018 8:10:00 AM
US-50 at Table Rock Rd 5 93 3 None 7 mph 20 mph W 10 - 10 1/18/2018 8:10:00 AM
US-50 Kent Narrow Bridge 21 59 9 None 6 mph 11 mph NW 19 - 22 1/18/2018 8:10:00 AM
WPL Pier 31 18 55 5 Snow 9 mph 14 mph W 16 - 16 1/18/2018 8:11:00 AM
Location Air RH Dwp Precip Type Wind Speed Wind Gust Direction Pavement Temperature Date/Time